Time;durP1;ratioP1;P1;durP2;ratioP2;P2;SDS_P1;SDS_P2;PMS_P1;PMS_P2;Temp;Humidity;BMP_temperature;BMP_pressure;BME280_temperature;BME280_humidity;BME280_pressure;Samples;Min_cycle;Max_cycle;Signal;HPM_P1;HPM_P2
2022/08/21 00:00:51;;;;;;;0.00;0.00;;;;;;;;;;5060365;28;20613;-67
2022/08/21 00:03:17;;;;;;;0.00;0.00;;;;;;;;;;5074948;28;20208;-67
2022/08/21 00:05:46;;;;;;;0.00;0.00;;;;;;;;;;5060233;28;20302;-68
2022/08/21 00:08:13;;;;;;;0.00;0.00;;;;;;;;;;5074951;28;20282;-68
2022/08/21 00:10:39;;;;;;;0.00;0.00;;;;;;;;;;5059123;28;20251;-68
2022/08/21 00:13:06;;;;;;;0.10;0.10;;;;;;;;;;5076071;28;20218;-68
2022/08/21 00:15:34;;;;;;;0.00;0.00;;;;;;;;;;5058433;28;20262;-67
2022/08/21 00:18:03;;;;;;;0.00;0.00;;;;;;;;;;5076636;28;20281;-68
2022/08/21 00:20:30;;;;;;;0.00;0.00;;;;;;;;;;5058126;28;20451;-67
2022/08/21 00:22:57;;;;;;;0.00;0.00;;;;;;;;;;5077138;28;20207;-67
2022/08/21 00:25:24;;;;;;;0.00;0.00;;;;;;;;;;5056163;28;20204;-67
2022/08/21 00:27:51;;;;;;;0.00;0.00;;;;;;;;;;5077853;28;20207;-68
2022/08/21 00:30:19;;;;;;;0.00;0.00;;;;;;;;;;5056126;28;20272;-68
2022/08/21 00:32:46;;;;;;;0.00;0.00;;;;;;;;;;5078130;28;20325;-68
2022/08/21 00:35:17;;;;;;;0.00;0.00;;;;;;;;;;5055495;28;20204;-68
2022/08/21 00:37:43;;;;;;;0.00;0.00;;;;;;;;;;5078345;28;20204;-68
2022/08/21 00:40:17;;;;;;;0.00;0.00;;;;;;;;;;5055170;28;20210;-68
2022/08/21 00:42:44;;;;;;;0.00;0.00;;;;;;;;;;5078281;28;20272;-67
2022/08/21 00:45:11;;;;;;;0.00;0.00;;;;;;;;;;5055263;28;20207;-68
2022/08/21 00:47:37;;;;;;;0.00;0.00;;;;;;;;;;5078923;28;20291;-67
2022/08/21 00:50:04;;;;;;;0.00;0.00;;;;;;;;;;5064503;28;20210;-68
2022/08/21 00:52:32;;;;;;;0.10;0.10;;;;;;;;;;5052678;28;20330;-67
2022/08/21 00:54:59;;;;;;;0.00;0.00;;;;;;;;;;5064224;28;20222;-68
2022/08/21 00:57:28;;;;;;;0.00;0.00;;;;;;;;;;5069373;28;20342;-68
2022/08/21 00:59:55;;;;;;;0.00;0.00;;;;;;;;;;5064021;28;20374;-68
2022/08/21 01:02:22;;;;;;;0.00;0.00;;;;;;;;;;5069238;28;20308;-68
2022/08/21 01:04:48;;;;;;;0.10;0.10;;;;;;;;;;5064099;28;20207;-67
2022/08/21 01:07:15;;;;;;;0.00;0.00;;;;;;;;;;5069128;28;20238;-67
2022/08/21 01:09:42;;;;;;;0.00;0.00;;;;;;;;;;5063767;28;20222;-68
2022/08/21 01:12:08;;;;;;;0.00;0.00;;;;;;;;;;5069101;28;20448;-67
2022/08/21 01:14:36;;;;;;;0.00;0.00;;;;;;;;;;5063451;28;20215;-68
2022/08/21 01:17:03;;;;;;;0.00;0.00;;;;;;;;;;5068599;28;20242;-68
2022/08/21 01:19:30;;;;;;;0.10;0.10;;;;;;;;;;5064237;28;20337;-68
2022/08/21 01:21:59;;;;;;;0.00;0.00;;;;;;;;;;5067646;28;20244;-68
2022/08/21 01:24:25;;;;;;;0.00;0.00;;;;;;;;;;5064828;28;20236;-66
2022/08/21 01:26:52;;;;;;;0.00;0.00;;;;;;;;;;5067193;28;20235;-67
2022/08/21 01:29:23;;;;;;;0.00;0.00;;;;;;;;;;5065274;28;20276;-68
2022/08/21 01:31:50;;;;;;;0.00;0.00;;;;;;;;;;5066489;28;20251;-67
2022/08/21 01:34:16;;;;;;;0.00;0.00;;;;;;;;;;5065884;28;20282;-68
2022/08/21 01:36:43;;;;;;;0.00;0.00;;;;;;;;;;5065733;28;20241;-68
2022/08/21 01:39:11;;;;;;;0.10;0.10;;;;;;;;;;5066017;28;20210;-69
2022/08/21 01:41:37;;;;;;;0.00;0.00;;;;;;;;;;5064872;28;20577;-68
2022/08/21 01:44:04;;;;;;;0.00;0.00;;;;;;;;;;5066703;28;20204;-67
2022/08/21 01:46:30;;;;;;;0.00;0.00;;;;;;;;;;5064117;28;20302;-67
2022/08/21 01:48:57;;;;;;;0.10;0.10;;;;;;;;;;5067452;28;20220;-68
2022/08/21 01:51:23;;;;;;;0.10;0.10;;;;;;;;;;5063180;28;20246;-69
2022/08/21 01:53:49;;;;;;;0.00;0.00;;;;;;;;;;5068528;28;20458;-68
2022/08/21 01:56:18;;;;;;;0.00;0.00;;;;;;;;;;5062166;28;20253;-67
2022/08/21 01:58:46;;;;;;;0.00;0.00;;;;;;;;;;5068912;28;20277;-67
2022/08/21 02:01:13;;;;;;;0.00;0.00;;;;;;;;;;5061596;28;20302;-68
2022/08/21 02:03:39;;;;;;;0.00;0.00;;;;;;;;;;5069923;28;20502;-68
2022/08/21 02:06:06;;;;;;;0.00;0.00;;;;;;;;;;5060444;28;20261;-69
2022/08/21 02:08:33;;;;;;;0.10;0.10;;;;;;;;;;5070350;28;20286;-69
2022/08/21 02:11:00;;;;;;;0.00;0.00;;;;;;;;;;5059632;28;20264;-68
2022/08/21 02:13:27;;;;;;;0.00;0.00;;;;;;;;;;5071141;28;20543;-67
2022/08/21 02:15:54;;;;;;;0.00;0.00;;;;;;;;;;5058888;28;20599;-68
2022/08/21 02:18:21;;;;;;;0.00;0.00;;;;;;;;;;5071913;28;20283;-68
2022/08/21 02:20:49;;;;;;;0.00;0.00;;;;;;;;;;5057738;28;20255;-68
2022/08/21 02:23:15;;;;;;;0.00;0.00;;;;;;;;;;5072459;28;20203;-67
2022/08/21 02:25:42;;;;;;;0.00;0.00;;;;;;;;;;5057373;28;20242;-67
2022/08/21 02:28:10;;;;;;;0.00;0.00;;;;;;;;;;5073012;28;20249;-67
2022/08/21 02:30:40;;;;;;;0.00;0.00;;;;;;;;;;5056417;28;20249;-69
2022/08/21 02:33:07;;;;;;;0.00;0.00;;;;;;;;;;5073218;28;20341;-68
2022/08/21 02:35:34;;;;;;;0.00;0.00;;;;;;;;;;5056169;28;20276;-68
2022/08/21 02:38:02;;;;;;;0.00;0.00;;;;;;;;;;5074065;28;20271;-67
2022/08/21 02:40:30;;;;;;;0.00;0.00;;;;;;;;;;5054986;28;20246;-69
2022/08/21 02:42:56;;;;;;;0.00;0.00;;;;;;;;;;5074365;28;20275;-67
2022/08/21 02:45:23;;;;;;;0.00;0.00;;;;;;;;;;5054349;28;20401;-67
2022/08/21 02:47:52;;;;;;;0.08;0.08;;;;;;;;;;5075435;28;20405;-68
2022/08/21 02:50:20;;;;;;;0.00;0.00;;;;;;;;;;5053534;28;20207;-68
2022/08/21 02:52:46;;;;;;;0.00;0.00;;;;;;;;;;5076041;28;20210;-68
2022/08/21 02:55:12;;;;;;;0.00;0.00;;;;;;;;;;5053246;28;20320;-69
2022/08/21 02:57:39;;;;;;;0.00;0.00;;;;;;;;;;5076465;28;20358;-68
2022/08/21 03:00:06;;;;;;;0.00;0.00;;;;;;;;;;5056412;28;20348;-67
2022/08/21 03:02:34;;;;;;;0.00;0.00;;;;;;;;;;5077388;28;20231;-68
2022/08/21 03:05:02;;;;;;;0.00;0.00;;;;;;;;;;5062121;28;20355;-68
2022/08/21 03:07:28;;;;;;;0.00;0.00;;;;;;;;;;5067517;28;20259;-69
2022/08/21 03:09:54;;;;;;;0.00;0.00;;;;;;;;;;5061777;28;20203;-68
2022/08/21 03:12:21;;;;;;;0.00;0.00;;;;;;;;;;5067355;28;20656;-68
2022/08/21 03:14:47;;;;;;;0.00;0.00;;;;;;;;;;5062019;28;20462;-68
2022/08/21 03:17:13;;;;;;;0.00;0.00;;;;;;;;;;5067147;28;20244;-67
2022/08/21 03:19:40;;;;;;;0.10;0.10;;;;;;;;;;5061764;28;20273;-68
2022/08/21 03:22:07;;;;;;;0.08;0.08;;;;;;;;;;5066805;28;20311;-67
2022/08/21 03:24:34;;;;;;;0.00;0.00;;;;;;;;;;5061602;28;20238;-68
2022/08/21 03:27:03;;;;;;;0.00;0.00;;;;;;;;;;5066591;28;20244;-67
2022/08/21 03:29:29;;;;;;;0.00;0.00;;;;;;;;;;5061981;28;20281;-66
2022/08/21 03:31:56;;;;;;;0.00;0.00;;;;;;;;;;5065781;28;20315;-68
2022/08/21 03:34:22;;;;;;;0.10;0.10;;;;;;;;;;5062560;28;20234;-67
2022/08/21 03:36:49;;;;;;;0.00;0.00;;;;;;;;;;5064756;28;20248;-67
2022/08/21 03:39:17;;;;;;;0.00;0.00;;;;;;;;;;5063846;28;20208;-67
2022/08/21 03:41:43;;;;;;;0.10;0.10;;;;;;;;;;5064119;28;20310;-67
2022/08/21 03:44:10;;;;;;;0.00;0.00;;;;;;;;;;5064144;28;20563;-67
2022/08/21 03:46:36;;;;;;;0.00;0.00;;;;;;;;;;5062925;28;20239;-67
2022/08/21 03:49:02;;;;;;;0.00;0.00;;;;;;;;;;5065485;28;20204;-68
2022/08/21 03:51:29;;;;;;;0.00;0.00;;;;;;;;;;5062100;28;20533;-67
2022/08/21 03:53:56;;;;;;;0.00;0.00;;;;;;;;;;5065676;28;20207;-67
2022/08/21 03:56:23;;;;;;;0.00;0.00;;;;;;;;;;5060921;28;20242;-67
2022/08/21 03:58:50;;;;;;;0.00;0.00;;;;;;;;;;5066794;28;20218;-67
2022/08/21 04:01:16;;;;;;;0.00;0.00;;;;;;;;;;5061195;28;20305;-66
2022/08/21 04:03:42;;;;;;;0.00;0.00;;;;;;;;;;5071745;28;20278;-67
2022/08/21 04:06:09;;;;;;;0.00;0.00;;;;;;;;;;5061733;28;20247;-67
2022/08/21 04:08:35;;;;;;;0.10;0.10;;;;;;;;;;5073226;28;20370;-67
2022/08/21 04:11:02;;;;;;;0.00;0.00;;;;;;;;;;5062107;28;20241;-67
2022/08/21 04:13:29;;;;;;;0.00;0.00;;;;;;;;;;5072754;28;20278;-67
2022/08/21 04:15:56;;;;;;;0.00;0.00;;;;;;;;;;5060991;28;20239;-68
2022/08/21 04:18:22;;;;;;;0.00;0.00;;;;;;;;;;5073643;28;20267;-68
2022/08/21 04:20:50;;;;;;;0.00;0.00;;;;;;;;;;5060086;28;20316;-66
2022/08/21 04:23:16;;;;;;;0.73;0.73;;;;;;;;;;5074473;28;20430;-67
2022/08/21 04:25:43;;;;;;;0.08;0.08;;;;;;;;;;5059265;28;20344;-67
2022/08/21 04:28:09;;;;;;;0.00;0.00;;;;;;;;;;5075314;28;20563;-67
2022/08/21 04:30:37;;;;;;;0.00;0.00;;;;;;;;;;5058443;28;20253;-67
2022/08/21 04:33:04;;;;;;;0.00;0.00;;;;;;;;;;5075640;28;20366;-67
2022/08/21 04:35:31;;;;;;;0.05;0.05;;;;;;;;;;5057796;28;20242;-67
2022/08/21 04:37:57;;;;;;;0.00;0.00;;;;;;;;;;5076601;28;20278;-66
2022/08/21 04:40:25;;;;;;;0.00;0.00;;;;;;;;;;5056885;28;20214;-66
2022/08/21 04:42:53;;;;;;;0.00;0.00;;;;;;;;;;5077350;28;20257;-67
2022/08/21 04:45:20;;;;;;;0.00;0.00;;;;;;;;;;5056089;28;20305;-66
2022/08/21 04:47:49;;;;;;;0.00;0.00;;;;;;;;;;5077374;28;20226;-67
2022/08/21 04:50:16;;;;;;;0.00;0.00;;;;;;;;;;5055529;28;20276;-66
2022/08/21 04:52:42;;;;;;;0.00;0.00;;;;;;;;;;5078456;28;20562;-68
2022/08/21 04:55:09;;;;;;;0.00;0.00;;;;;;;;;;5054388;28;20208;-67
2022/08/21 04:57:35;;;;;;;0.00;0.00;;;;;;;;;;5078881;28;20210;-67
2022/08/21 05:00:02;;;;;;;0.00;0.00;;;;;;;;;;5063886;28;20205;-67
2022/08/21 05:02:29;;;;;;;0.00;0.00;;;;;;;;;;5069231;28;20265;-67
2022/08/21 05:04:56;;;;;;;0.00;0.00;;;;;;;;;;5063814;28;20522;-67
2022/08/21 05:07:23;;;;;;;0.00;0.00;;;;;;;;;;5069070;28;20242;-68
2022/08/21 05:09:50;;;;;;;0.08;0.08;;;;;;;;;;5063675;28;20380;-67
2022/08/21 05:12:16;;;;;;;0.00;0.00;;;;;;;;;;5068486;28;20245;-67
2022/08/21 05:14:43;;;;;;;0.00;0.00;;;;;;;;;;5063938;28;20276;-67
2022/08/21 05:17:09;;;;;;;0.10;0.10;;;;;;;;;;5069051;28;20245;-67
2022/08/21 05:19:36;;;;;;;0.10;0.10;;;;;;;;;;5063350;28;20384;-67
2022/08/21 05:22:03;;;;;;;0.05;0.05;;;;;;;;;;5068407;28;20253;-67
2022/08/21 05:24:30;;;;;;;0.00;0.00;;;;;;;;;;5063515;28;20295;-67
2022/08/21 05:26:56;;;;;;;0.00;0.00;;;;;;;;;;5067562;28;20246;-67
2022/08/21 05:29:23;;;;;;;0.00;0.00;;;;;;;;;;5064955;28;20211;-66
2022/08/21 05:31:49;;;;;;;0.00;0.00;;;;;;;;;;5066567;28;20246;-67
2022/08/21 05:34:18;;;;;;;0.05;0.05;;;;;;;;;;5065623;28;20233;-66
2022/08/21 05:36:45;;;;;;;0.00;0.00;;;;;;;;;;5065804;28;20309;-67
2022/08/21 05:39:12;;;;;;;0.00;0.00;;;;;;;;;;5066094;28;20202;-67
2022/08/21 05:41:39;;;;;;;0.00;0.00;;;;;;;;;;5065089;28;20308;-68
2022/08/21 05:44:05;;;;;;;0.00;0.00;;;;;;;;;;5066861;28;20213;-67
2022/08/21 05:46:32;;;;;;;0.00;0.00;;;;;;;;;;5063945;28;20243;-67
2022/08/21 05:48:58;;;;;;;0.00;0.00;;;;;;;;;;5067604;28;20563;-68
2022/08/21 05:51:25;;;;;;;0.00;0.00;;;;;;;;;;5063044;28;20316;-67
2022/08/21 05:53:51;;;;;;;0.00;0.00;;;;;;;;;;5068299;28;20387;-67
2022/08/21 05:56:19;;;;;;;0.00;0.00;;;;;;;;;;5062019;28;20618;-67
2022/08/21 05:58:45;;;;;;;0.00;0.00;;;;;;;;;;5069171;28;20208;-67
2022/08/21 06:01:11;;;;;;;0.00;0.00;;;;;;;;;;5061057;28;20258;-67
2022/08/21 06:03:39;;;;;;;0.00;0.00;;;;;;;;;;5070019;28;20206;-67
2022/08/21 06:06:06;;;;;;;0.00;0.00;;;;;;;;;;5060371;28;20250;-67
2022/08/21 06:08:33;;;;;;;0.00;0.00;;;;;;;;;;5070089;28;20333;-67
2022/08/21 06:11:00;;;;;;;0.00;0.00;;;;;;;;;;5059261;28;20254;-68
2022/08/21 06:13:31;;;;;;;0.08;0.08;;;;;;;;;;5071310;28;20371;-67
2022/08/21 06:16:04;;;;;;;0.00;0.00;;;;;;;;;;5059094;28;20253;-66
2022/08/21 06:18:31;;;;;;;0.00;0.00;;;;;;;;;;5070282;28;20225;-66
2022/08/21 06:20:57;;;;;;;0.00;0.00;;;;;;;;;;5059154;28;20240;-67
2022/08/21 06:23:24;;;;;;;0.08;0.08;;;;;;;;;;5070367;28;20215;-67
2022/08/21 06:25:50;;;;;;;0.00;0.00;;;;;;;;;;5058079;28;20439;-67
2022/08/21 06:28:16;;;;;;;0.00;0.00;;;;;;;;;;5071463;28;20241;-67
2022/08/21 06:30:44;;;;;;;0.00;0.00;;;;;;;;;;5057355;28;20301;-67
2022/08/21 06:33:10;;;;;;;0.00;0.00;;;;;;;;;;5072453;28;20226;-67
2022/08/21 06:35:37;;;;;;;0.00;0.00;;;;;;;;;;5056318;28;20242;-67
2022/08/21 06:38:03;;;;;;;0.10;0.10;;;;;;;;;;5073615;28;20213;-65
2022/08/21 06:40:30;;;;;;;0.00;0.00;;;;;;;;;;5055282;28;20242;-67
2022/08/21 06:42:56;;;;;;;0.10;0.10;;;;;;;;;;5074055;28;20277;-68
2022/08/21 06:45:23;;;;;;;0.00;0.00;;;;;;;;;;5054405;28;20206;-67
2022/08/21 06:47:50;;;;;;;0.00;0.00;;;;;;;;;;5075137;28;20241;-67
2022/08/21 06:50:17;;;;;;;0.00;0.00;;;;;;;;;;5053369;28;20213;-67
2022/08/21 06:52:43;;;;;;;0.00;0.00;;;;;;;;;;5076074;28;20211;-66
2022/08/21 06:55:10;;;;;;;0.00;0.00;;;;;;;;;;5052344;28;20205;-67
2022/08/21 06:57:36;;;;;;;0.03;0.03;;;;;;;;;;5076506;28;20202;-66
2022/08/21 07:00:04;;;;;;;0.08;0.08;;;;;;;;;;5061703;28;20372;-69
2022/08/21 07:02:31;;;;;;;0.00;0.00;;;;;;;;;;5050571;28;20279;-67
2022/08/21 07:04:58;;;;;;;0.10;0.10;;;;;;;;;;5061956;28;20212;-67
2022/08/21 07:07:25;;;;;;;0.00;0.00;;;;;;;;;;5067144;28;20490;-67
2022/08/21 07:09:51;;;;;;;0.00;0.00;;;;;;;;;;5061668;28;20206;-66
2022/08/21 07:12:17;;;;;;;0.00;0.00;;;;;;;;;;5067253;28;20289;-66
2022/08/21 07:14:44;;;;;;;0.10;0.10;;;;;;;;;;5062072;28;20450;-68
2022/08/21 07:17:10;;;;;;;0.00;0.00;;;;;;;;;;5067255;28;20246;-67
2022/08/21 07:19:36;;;;;;;0.00;0.00;;;;;;;;;;5062103;28;20275;-66
2022/08/21 07:22:05;;;;;;;0.03;0.03;;;;;;;;;;5066892;28;20387;-67
2022/08/21 07:24:31;;;;;;;0.00;0.00;;;;;;;;;;5062059;28;20205;-68
2022/08/21 07:26:57;;;;;;;0.00;0.00;;;;;;;;;;5066020;28;20511;-67
2022/08/21 07:29:24;;;;;;;0.00;0.00;;;;;;;;;;5062763;28;20226;-67
2022/08/21 07:31:50;;;;;;;0.00;0.00;;;;;;;;;;5064865;28;20301;-67
2022/08/21 07:34:16;;;;;;;0.10;0.10;;;;;;;;;;5063988;28;20205;-68
2022/08/21 07:36:43;;;;;;;0.10;0.10;;;;;;;;;;5067789;28;20278;-68
2022/08/21 07:39:11;;;;;;;0.00;0.00;;;;;;;;;;5068365;28;20502;-67
2022/08/21 07:41:37;;;;;;;0.10;0.10;;;;;;;;;;5067160;28;20462;-68
2022/08/21 07:44:04;;;;;;;0.00;0.00;;;;;;;;;;5069462;28;20244;-67
2022/08/21 07:46:30;;;;;;;0.00;0.00;;;;;;;;;;5066454;28;20309;-66
2022/08/21 07:48:56;;;;;;;0.00;0.00;;;;;;;;;;5070157;28;20456;-69
2022/08/21 07:51:27;;;;;;;0.00;0.00;;;;;;;;;;5065125;28;20242;-67
2022/08/21 07:53:54;;;;;;;0.00;0.00;;;;;;;;;;5070042;28;20242;-68
2022/08/21 07:56:22;;;;;;;0.00;0.00;;;;;;;;;;5064799;28;20242;-69
2022/08/21 07:58:49;;;;;;;0.10;0.10;;;;;;;;;;5071201;28;20278;-67
2022/08/21 08:01:15;;;;;;;0.00;0.00;;;;;;;;;;5064118;28;20394;-68
2022/08/21 08:03:41;;;;;;;0.00;0.00;;;;;;;;;;5071903;28;20498;-67
2022/08/21 08:06:11;;;;;;;0.00;0.00;;;;;;;;;;5062960;28;20251;-68
2022/08/21 08:08:38;;;;;;;0.00;0.00;;;;;;;;;;5072046;28;20225;-68
2022/08/21 08:11:04;;;;;;;0.00;0.00;;;;;;;;;;5062655;28;20251;-68
2022/08/21 08:13:33;;;;;;;0.00;0.00;;;;;;;;;;5072826;28;20278;-67
2022/08/21 08:15:59;;;;;;;0.00;0.00;;;;;;;;;;5061940;28;20245;-68
2022/08/21 08:18:25;;;;;;;0.00;0.00;;;;;;;;;;5073491;28;20448;-68
2022/08/21 08:20:52;;;;;;;0.00;0.00;;;;;;;;;;5060809;28;20242;-68
2022/08/21 08:23:18;;;;;;;0.00;0.00;;;;;;;;;;5074244;28;20507;-67
2022/08/21 08:25:44;;;;;;;0.10;0.10;;;;;;;;;;5059683;28;20246;-67
2022/08/21 08:28:11;;;;;;;0.00;0.00;;;;;;;;;;5075325;28;20297;-68
2022/08/21 08:30:38;;;;;;;0.00;0.00;;;;;;;;;;5058919;28;20470;-67
2022/08/21 08:33:05;;;;;;;0.00;0.00;;;;;;;;;;5075822;28;20259;-68
2022/08/21 08:35:31;;;;;;;0.00;0.00;;;;;;;;;;5057850;28;20305;-67
2022/08/21 08:37:58;;;;;;;0.10;0.10;;;;;;;;;;5076710;28;20238;-67
2022/08/21 08:40:32;;;;;;;0.00;0.00;;;;;;;;;;5056794;28;20569;-67
2022/08/21 08:42:59;;;;;;;0.00;0.00;;;;;;;;;;5077483;28;20211;-67
2022/08/21 08:45:26;;;;;;;0.00;0.00;;;;;;;;;;5057628;28;20292;-67
2022/08/21 08:47:57;;;;;;;0.00;0.00;;;;;;;;;;5076045;28;20217;-66
2022/08/21 08:50:26;;;;;;;0.10;0.10;;;;;;;;;;5057004;28;20210;-67
2022/08/21 08:52:54;;;;;;;0.00;0.00;;;;;;;;;;5077516;28;20282;-66
2022/08/21 08:55:22;;;;;;;0.00;0.00;;;;;;;;;;5055926;28;20322;-66
2022/08/21 08:57:49;;;;;;;0.00;0.00;;;;;;;;;;5077929;28;20286;-67
2022/08/21 09:00:24;;;;;;;0.00;0.00;;;;;;;;;;5055466;28;20213;-67
2022/08/21 09:02:52;;;;;;;0.10;0.10;;;;;;;;;;5077131;28;20207;-66
2022/08/21 09:05:22;;;;;;;0.00;0.00;;;;;;;;;;5055710;28;20212;-66
2022/08/21 09:07:54;;;;;;;0.00;0.00;;;;;;;;;;5077285;28;20220;-68
2022/08/21 09:10:22;;;;;;;0.00;0.00;;;;;;;;;;5055793;28;20191;-67
2022/08/21 09:12:53;;;;;;;0.08;0.08;;;;;;;;;;5077183;28;20362;-66
2022/08/21 09:15:25;;;;;;;0.00;0.00;;;;;;;;;;5055659;28;20275;-68
2022/08/21 09:18:05;;;;;;;0.00;0.00;;;;;;;;;;5076646;28;20274;-66
2022/08/21 09:20:41;;;;;;;0.00;0.00;;;;;;;;;;5056753;28;20257;-66
2022/08/21 09:23:19;;;;;;;0.00;0.00;;;;;;;;;;5074602;28;20215;-66
2022/08/21 09:25:50;;;;;;;0.00;0.00;;;;;;;;;;5058898;28;20249;-68
2022/08/21 09:28:17;;;;;;;0.00;0.00;;;;;;;;;;5073697;28;20334;-68
2022/08/21 09:30:43;;;;;;;0.00;0.00;;;;;;;;;;5058288;28;20502;-67
2022/08/21 09:33:12;;;;;;;0.10;0.10;;;;;;;;;;5073998;28;20212;-66
2022/08/21 09:35:48;;;;;;;0.00;0.00;;;;;;;;;;5057632;28;20246;-66
2022/08/21 09:38:24;;;;;;;0.00;0.00;;;;;;;;;;5073524;28;20218;-67
2022/08/21 09:40:56;;;;;;;0.00;0.00;;;;;;;;;;5059158;28;20589;-67
2022/08/21 09:43:24;;;;;;;0.10;0.10;;;;;;;;;;5072291;28;20258;-66
2022/08/21 09:46:02;;;;;;;0.00;0.00;;;;;;;;;;5059167;28;20246;-66
2022/08/21 09:48:29;;;;;;;0.10;0.10;;;;;;;;;;5071656;28;20254;-67
2022/08/21 09:51:06;;;;;;;0.10;0.10;;;;;;;;;;5059597;28;20561;-67
2022/08/21 09:53:33;;;;;;;0.00;0.00;;;;;;;;;;5070911;28;20229;-68
2022/08/21 09:58:46;;;;;;;0.00;0.00;;;;;;;;;;5069228;28;20507;-66
2022/08/21 10:01:14;;;;;;;0.08;0.08;;;;;;;;;;5061672;28;20313;-65
2022/08/21 10:03:41;;;;;;;0.00;0.00;;;;;;;;;;5069473;28;20218;-67
2022/08/21 10:06:10;;;;;;;0.00;0.00;;;;;;;;;;5060598;28;20537;-65
2022/08/21 10:08:38;;;;;;;0.00;0.00;;;;;;;;;;5070251;28;20232;-66
2022/08/21 10:11:07;;;;;;;0.00;0.00;;;;;;;;;;5060179;28;20298;-68
2022/08/21 10:13:39;;;;;;;0.00;0.00;;;;;;;;;;5069829;28;20216;-70
2022/08/21 10:16:12;;;;;;;0.00;0.00;;;;;;;;;;5060457;28;20306;-71
2022/08/21 10:18:41;;;;;;;0.08;0.08;;;;;;;;;;5069324;28;20196;-72
2022/08/21 10:21:12;;;;;;;0.00;0.00;;;;;;;;;;5060593;28;20258;-74
2022/08/21 10:23:46;;;;;;;0.10;0.10;;;;;;;;;;5069771;28;20218;-78
2022/08/21 10:26:19;;;;;;;0.00;0.00;;;;;;;;;;5061316;28;20576;-74
2022/08/21 10:28:51;;;;;;;0.00;0.00;;;;;;;;;;5068651;28;20228;-73
2022/08/21 10:31:21;;;;;;;0.00;0.00;;;;;;;;;;5061878;28;20449;-81
2022/08/21 10:33:54;;;;;;;0.00;0.00;;;;;;;;;;5068223;28;20382;-77
2022/08/21 10:36:24;;;;;;;0.00;0.00;;;;;;;;;;5062622;28;20263;-78
2022/08/21 10:38:54;;;;;;;0.00;0.00;;;;;;;;;;5067728;28;20200;-78
2022/08/21 10:41:28;;;;;;;0.00;0.00;;;;;;;;;;5062060;28;20239;-75
2022/08/21 10:44:02;;;;;;;0.00;0.00;;;;;;;;;;5067360;28;20246;-75
2022/08/21 10:46:36;;;;;;;0.00;0.00;;;;;;;;;;5062669;28;20243;-75
2022/08/21 10:49:08;;;;;;;0.00;0.00;;;;;;;;;;5066204;28;20246;-75
2022/08/21 10:51:40;;;;;;;0.00;0.00;;;;;;;;;;5063568;28;20293;-75
2022/08/21 10:54:12;;;;;;;0.00;0.00;;;;;;;;;;5065820;28;20275;-75
2022/08/21 10:56:40;;;;;;;0.00;0.00;;;;;;;;;;5064122;28;20267;-74
2022/08/21 10:59:18;;;;;;;0.00;0.00;;;;;;;;;;5065411;28;20202;-75
2022/08/21 11:01:48;;;;;;;0.10;0.10;;;;;;;;;;5064885;28;20251;-74
2022/08/21 11:04:20;;;;;;;0.00;0.00;;;;;;;;;;5064735;28;20276;-74
2022/08/21 11:06:51;;;;;;;0.00;0.00;;;;;;;;;;5064958;28;20234;-72
2022/08/21 11:09:18;;;;;;;0.00;0.00;;;;;;;;;;5065254;28;20235;-74
2022/08/21 11:11:47;;;;;;;0.00;0.00;;;;;;;;;;5071819;28;20242;-75
2022/08/21 11:14:19;;;;;;;0.00;0.00;;;;;;;;;;5071479;28;20242;-76
2022/08/21 11:16:47;;;;;;;0.00;0.00;;;;;;;;;;5071770;28;20241;-76
2022/08/21 11:19:16;;;;;;;0.00;0.00;;;;;;;;;;5070656;28;20206;-75
2022/08/21 11:21:44;;;;;;;0.00;0.00;;;;;;;;;;5071873;28;20246;-75
2022/08/21 11:24:20;;;;;;;0.00;0.00;;;;;;;;;;5072643;28;20241;-76
2022/08/21 11:26:48;;;;;;;0.00;0.00;;;;;;;;;;5072584;28;20242;-78
2022/08/21 11:29:18;;;;;;;0.00;0.00;;;;;;;;;;5072115;28;20223;-77
2022/08/21 11:31:52;;;;;;;0.00;0.00;;;;;;;;;;5071197;28;20296;-77
2022/08/21 11:34:24;;;;;;;0.00;0.00;;;;;;;;;;5071494;28;20215;-78
2022/08/21 11:36:56;;;;;;;0.00;0.00;;;;;;;;;;5072530;28;20273;-76
2022/08/21 11:39:27;;;;;;;0.00;0.00;;;;;;;;;;5070005;28;20238;-76
2022/08/21 11:41:58;;;;;;;0.00;0.00;;;;;;;;;;5072718;28;20239;-75
2022/08/21 11:44:29;;;;;;;0.00;0.00;;;;;;;;;;5069167;28;20204;-74
2022/08/21 11:47:01;;;;;;;0.00;0.00;;;;;;;;;;5072472;28;20273;-75
2022/08/21 11:49:50;;;;;;;0.00;0.00;;;;;;;;;;5069479;28;20266;-74
2022/08/21 11:52:20;;;;;;;0.00;0.00;;;;;;;;;;5073534;28;20281;-75
2022/08/21 11:54:49;;;;;;;0.00;0.00;;;;;;;;;;5068406;28;20231;-76
2022/08/21 11:57:28;;;;;;;0.00;0.00;;;;;;;;;;5073522;28;20306;-75
2022/08/21 11:59:58;;;;;;;0.03;0.03;;;;;;;;;;5068521;28;20259;-76
2022/08/21 12:02:28;;;;;;;0.00;0.00;;;;;;;;;;5073131;28;20305;-75
2022/08/21 12:04:56;;;;;;;0.00;0.00;;;;;;;;;;5068250;28;20204;-75
2022/08/21 12:07:31;;;;;;;0.00;0.00;;;;;;;;;;5073402;28;20302;-72
2022/08/21 12:09:59;;;;;;;0.00;0.00;;;;;;;;;;5067761;28;20230;-73
2022/08/21 12:12:28;;;;;;;0.00;0.00;;;;;;;;;;5073341;28;20331;-73
2022/08/21 12:15:06;;;;;;;0.00;0.00;;;;;;;;;;5068110;28;20395;-74
2022/08/21 12:17:36;;;;;;;0.00;0.00;;;;;;;;;;5056596;28;20234;-74
2022/08/21 12:20:18;;;;;;;0.00;0.00;;;;;;;;;;5068052;28;20242;-73
2022/08/21 12:22:50;;;;;;;0.00;0.00;;;;;;;;;;5063120;28;20191;-74
2022/08/21 12:25:19;;;;;;;0.00;0.00;;;;;;;;;;5056156;28;20193;-75
2022/08/21 12:27:47;;;;;;;0.00;0.00;;;;;;;;;;5078386;28;20433;-74
2022/08/21 12:30:22;;;;;;;0.00;0.00;;;;;;;;;;5055615;28;20234;-74
2022/08/21 12:32:55;;;;;;;0.00;0.00;;;;;;;;;;5077950;28;20282;-72
2022/08/21 12:35:24;;;;;;;0.00;0.00;;;;;;;;;;5056609;28;20397;-74
2022/08/21 12:37:52;;;;;;;0.00;0.00;;;;;;;;;;5077481;28;20203;-72
2022/08/21 12:40:22;;;;;;;0.00;0.00;;;;;;;;;;5056181;28;20200;-75
2022/08/21 12:42:50;;;;;;;0.00;0.00;;;;;;;;;;5077438;28;20279;-75
2022/08/21 12:45:19;;;;;;;0.00;0.00;;;;;;;;;;5055506;28;20521;-73
2022/08/21 12:47:48;;;;;;;0.00;0.00;;;;;;;;;;5077812;28;20204;-70
2022/08/21 12:50:17;;;;;;;0.00;0.00;;;;;;;;;;5055349;28;20381;-67
2022/08/21 12:52:45;;;;;;;0.00;0.00;;;;;;;;;;5078641;28;20239;-67
2022/08/21 12:55:12;;;;;;;0.00;0.00;;;;;;;;;;5054604;28;20242;-67
2022/08/21 12:57:41;;;;;;;0.00;0.00;;;;;;;;;;5078732;28;20215;-67
2022/08/21 13:00:11;;;;;;;0.00;0.00;;;;;;;;;;5054298;28;20200;-67
2022/08/21 13:02:39;;;;;;;0.00;0.00;;;;;;;;;;5078454;28;20207;-67
2022/08/21 13:05:07;;;;;;;0.00;0.00;;;;;;;;;;5058288;28;20204;-67
2022/08/21 13:07:35;;;;;;;0.00;0.00;;;;;;;;;;5078965;28;20358;-66
2022/08/21 13:10:04;;;;;;;0.00;0.00;;;;;;;;;;5063522;28;20231;-67
2022/08/21 13:12:31;;;;;;;0.00;0.00;;;;;;;;;;5069060;28;20551;-67
2022/08/21 13:15:00;;;;;;;0.00;0.00;;;;;;;;;;5064003;28;20275;-67
2022/08/21 13:17:27;;;;;;;0.00;0.00;;;;;;;;;;5069320;28;20298;-66
2022/08/21 13:19:54;;;;;;;0.00;0.00;;;;;;;;;;5063919;28;20272;-67
2022/08/21 13:22:21;;;;;;;0.00;0.00;;;;;;;;;;5068920;28;20239;-66
2022/08/21 13:24:48;;;;;;;0.00;0.00;;;;;;;;;;5063527;28;20205;-67
2022/08/21 13:27:19;;;;;;;0.00;0.00;;;;;;;;;;5068861;28;20239;-67
2022/08/21 13:29:47;;;;;;;0.00;0.00;;;;;;;;;;5063703;28;20414;-67
2022/08/21 13:32:19;;;;;;;0.00;0.00;;;;;;;;;;5068473;28;20589;-68
2022/08/21 13:34:46;;;;;;;0.00;0.00;;;;;;;;;;5063393;28;20224;-67
2022/08/21 13:37:12;;;;;;;0.00;0.00;;;;;;;;;;5068962;28;20252;-67
2022/08/21 13:39:39;;;;;;;0.00;0.00;;;;;;;;;;5063655;28;20206;-67
2022/08/21 13:42:09;;;;;;;0.00;0.00;;;;;;;;;;5068816;28;20345;-67
2022/08/21 13:44:40;;;;;;;0.00;0.00;;;;;;;;;;5063934;28;20275;-67
2022/08/21 13:47:07;;;;;;;0.00;0.00;;;;;;;;;;5068725;28;20261;-67
2022/08/21 13:49:36;;;;;;;0.00;0.00;;;;;;;;;;5063652;28;20216;-67
2022/08/21 13:52:11;;;;;;;0.00;0.00;;;;;;;;;;5068303;28;20243;-68
2022/08/21 13:54:41;;;;;;;0.00;0.00;;;;;;;;;;5063230;28;20264;-67
2022/08/21 13:57:16;;;;;;;0.00;0.00;;;;;;;;;;5068587;28;20243;-68
2022/08/21 13:59:42;;;;;;;0.00;0.00;;;;;;;;;;5063203;28;20230;-68
2022/08/21 14:02:11;;;;;;;0.03;0.03;;;;;;;;;;5068332;28;20255;-68
2022/08/21 14:04:43;;;;;;;0.00;0.00;;;;;;;;;;5063185;28;20204;-66
2022/08/21 14:07:15;;;;;;;0.00;0.00;;;;;;;;;;5068312;28;20242;-67
2022/08/21 14:09:43;;;;;;;0.00;0.00;;;;;;;;;;5063073;28;20203;-67
2022/08/21 14:12:13;;;;;;;0.00;0.00;;;;;;;;;;5068181;28;20285;-69
2022/08/21 14:14:40;;;;;;;0.00;0.00;;;;;;;;;;5062803;28;20274;-67
2022/08/21 14:17:26;;;;;;;0.00;0.00;;;;;;;;;;5068031;28;20444;-67
2022/08/21 14:19:54;;;;;;;0.00;0.00;;;;;;;;;;5062709;28;20192;-68
2022/08/21 14:22:27;;;;;;;0.00;0.00;;;;;;;;;;5067873;28;20246;-66
2022/08/21 14:25:00;;;;;;;0.00;0.00;;;;;;;;;;5062878;28;20306;-66
2022/08/21 14:27:26;;;;;;;0.00;0.00;;;;;;;;;;5068079;28;20297;-68
2022/08/21 14:29:58;;;;;;;0.00;0.00;;;;;;;;;;5062661;28;20232;-66
2022/08/21 14:32:29;;;;;;;0.00;0.00;;;;;;;;;;5067929;28;20246;-67
2022/08/21 14:34:57;;;;;;;0.00;0.00;;;;;;;;;;5062324;28;20203;-67
2022/08/21 14:37:24;;;;;;;0.00;0.00;;;;;;;;;;5067600;28;20245;-67
2022/08/21 14:39:50;;;;;;;0.00;0.00;;;;;;;;;;5062412;28;20204;-68
2022/08/21 14:42:17;;;;;;;0.00;0.00;;;;;;;;;;5067784;28;20258;-68
2022/08/21 14:44:43;;;;;;;0.00;0.00;;;;;;;;;;5061603;28;20204;-67
2022/08/21 14:47:10;;;;;;;0.00;0.00;;;;;;;;;;5067765;28;20262;-68
2022/08/21 14:49:36;;;;;;;0.00;0.00;;;;;;;;;;5062666;28;20220;-68
2022/08/21 14:52:04;;;;;;;0.00;0.00;;;;;;;;;;5067246;28;20306;-68